sensor_id;sensor_type;location;lat;lon;timestamp;pressure;altitude;pressure_sealevel;temperature;humidity
51439;BME280;38816;51.142;-0.974;2024-01-11T00:00:58;101549.53;;;-0.31;100.00
51439;BME280;38816;51.142;-0.974;2024-01-11T00:03:24;101552.81;;;-0.21;100.00
51439;BME280;38816;51.142;-0.974;2024-01-11T00:05:50;101549.00;;;-0.16;100.00
51439;BME280;38816;51.142;-0.974;2024-01-11T00:08:16;101547.72;;;-0.11;100.00
51439;BME280;38816;51.142;-0.974;2024-01-11T00:10:41;101554.28;;;-0.03;100.00
51439;BME280;38816;51.142;-0.974;2024-01-11T00:13:07;101564.50;;;-0.02;100.00
51439;BME280;38816;51.142;-0.974;2024-01-11T00:15:32;101564.75;;;0.02;100.00
51439;BME280;38816;51.142;-0.974;2024-01-11T00:17:58;101565.13;;;0.06;100.00
51439;BME280;38816;51.142;-0.974;2024-01-11T00:20:24;101564.09;;;0.04;100.00
51439;BME280;38816;51.142;-0.974;2024-01-11T00:22:49;101569.41;;;0.07;100.00
51439;BME280;38816;51.142;-0.974;2024-01-11T00:25:15;101573.59;;;0.07;100.00
51439;BME280;38816;51.142;-0.974;2024-01-11T00:27:40;101566.50;;;0.03;100.00
51439;BME280;38816;51.142;-0.974;2024-01-11T00:30:07;101577.75;;;0.06;100.00
51439;BME280;38816;51.142;-0.974;2024-01-11T00:32:32;101582.03;;;0.07;100.00
51439;BME280;38816;51.142;-0.974;2024-01-11T00:34:58;101584.56;;;0.07;100.00
51439;BME280;38816;51.142;-0.974;2024-01-11T00:37:26;101594.44;;;0.04;100.00
51439;BME280;38816;51.142;-0.974;2024-01-11T00:39:51;101593.44;;;0.02;100.00
51439;BME280;38816;51.142;-0.974;2024-01-11T00:42:17;101592.03;;;0.06;100.00
51439;BME280;38816;51.142;-0.974;2024-01-11T00:44:43;101601.13;;;0.04;100.00
51439;BME280;38816;51.142;-0.974;2024-01-11T00:47:10;101601.91;;;0.03;100.00
51439;BME280;38816;51.142;-0.974;2024-01-11T00:49:36;101602.94;;;-0.06;100.00
51439;BME280;38816;51.142;-0.974;2024-01-11T00:52:01;101608.13;;;-0.14;100.00
51439;BME280;38816;51.142;-0.974;2024-01-11T00:54:27;101614.19;;;-0.12;100.00
51439;BME280;38816;51.142;-0.974;2024-01-11T00:56:52;101605.84;;;-0.11;100.00
51439;BME280;38816;51.142;-0.974;2024-01-11T00:59:18;101614.44;;;-0.09;100.00
51439;BME280;38816;51.142;-0.974;2024-01-11T01:01:50;101618.59;;;-0.10;100.00
51439;BME280;38816;51.142;-0.974;2024-01-11T01:04:16;101615.59;;;-0.16;100.00
51439;BME280;38816;51.142;-0.974;2024-01-11T01:06:42;101625.56;;;-0.28;100.00
51439;BME280;38816;51.142;-0.974;2024-01-11T01:09:08;101616.50;;;-0.36;100.00
51439;BME280;38816;51.142;-0.974;2024-01-11T01:11:34;101625.31;;;-0.41;100.00
51439;BME280;38816;51.142;-0.974;2024-01-11T01:13:59;101629.63;;;-0.50;100.00
51439;BME280;38816;51.142;-0.974;2024-01-11T01:16:25;101639.72;;;-0.60;100.00
51439;BME280;38816;51.142;-0.974;2024-01-11T01:18:51;101633.91;;;-0.69;100.00
51439;BME280;38816;51.142;-0.974;2024-01-11T01:21:17;101630.88;;;-0.75;100.00
51439;BME280;38816;51.142;-0.974;2024-01-11T01:23:42;101632.09;;;-0.91;100.00
51439;BME280;38816;51.142;-0.974;2024-01-11T01:26:08;101647.34;;;-0.99;100.00
51439;BME280;38816;51.142;-0.974;2024-01-11T01:28:33;101636.47;;;-1.09;100.00
51439;BME280;38816;51.142;-0.974;2024-01-11T01:30:59;101633.56;;;-1.13;100.00
51439;BME280;38816;51.142;-0.974;2024-01-11T01:33:24;101638.69;;;-1.22;100.00
51439;BME280;38816;51.142;-0.974;2024-01-11T01:35:50;101643.34;;;-1.27;100.00
51439;BME280;38816;51.142;-0.974;2024-01-11T01:38:15;101645.09;;;-1.36;100.00
51439;BME280;38816;51.142;-0.974;2024-01-11T01:40:42;101647.69;;;-1.44;100.00
51439;BME280;38816;51.142;-0.974;2024-01-11T01:43:08;101645.53;;;-1.50;100.00
51439;BME280;38816;51.142;-0.974;2024-01-11T01:45:34;101650.06;;;-1.56;100.00
51439;BME280;38816;51.142;-0.974;2024-01-11T01:48:00;101644.06;;;-1.67;100.00
51439;BME280;38816;51.142;-0.974;2024-01-11T01:50:29;101649.44;;;-1.72;100.00
51439;BME280;38816;51.142;-0.974;2024-01-11T01:52:56;101644.88;;;-1.76;100.00
51439;BME280;38816;51.142;-0.974;2024-01-11T01:55:22;101649.53;;;-1.81;100.00
51439;BME280;38816;51.142;-0.974;2024-01-11T01:57:50;101652.81;;;-1.82;100.00
51439;BME280;38816;51.142;-0.974;2024-01-11T02:00:17;101664.00;;;-1.89;100.00
51439;BME280;38816;51.142;-0.974;2024-01-11T02:02:44;101658.13;;;-1.98;100.00
51439;BME280;38816;51.142;-0.974;2024-01-11T02:05:11;101663.66;;;-2.02;100.00
51439;BME280;38816;51.142;-0.974;2024-01-11T02:07:38;101669.91;;;-2.07;100.00
51439;BME280;38816;51.142;-0.974;2024-01-11T02:10:06;101670.63;;;-2.08;100.00
51439;BME280;38816;51.142;-0.974;2024-01-11T02:12:32;101678.34;;;-2.07;100.00
51439;BME280;38816;51.142;-0.974;2024-01-11T02:14:58;101680.88;;;-2.07;100.00
51439;BME280;38816;51.142;-0.974;2024-01-11T02:17:24;101683.53;;;-2.05;100.00
51439;BME280;38816;51.142;-0.974;2024-01-11T02:19:50;101679.06;;;-2.08;100.00
51439;BME280;38816;51.142;-0.974;2024-01-11T02:22:21;101682.22;;;-2.10;100.00
51439;BME280;38816;51.142;-0.974;2024-01-11T02:24:47;101688.16;;;-2.10;100.00
51439;BME280;38816;51.142;-0.974;2024-01-11T02:27:12;101689.03;;;-2.09;100.00
51439;BME280;38816;51.142;-0.974;2024-01-11T02:29:38;101693.53;;;-2.15;100.00
51439;BME280;38816;51.142;-0.974;2024-01-11T02:32:04;101694.00;;;-2.19;100.00
51439;BME280;38816;51.142;-0.974;2024-01-11T02:34:31;101696.22;;;-2.22;100.00
51439;BME280;38816;51.142;-0.974;2024-01-11T02:36:58;101696.44;;;-2.30;100.00
51439;BME280;38816;51.142;-0.974;2024-01-11T02:39:24;101702.81;;;-2.33;100.00
51439;BME280;38816;51.142;-0.974;2024-01-11T02:41:51;101703.28;;;-2.37;100.00
51439;BME280;38816;51.142;-0.974;2024-01-11T02:44:17;101711.44;;;-2.40;100.00
51439;BME280;38816;51.142;-0.974;2024-01-11T02:46:43;101715.59;;;-2.40;100.00
51439;BME280;38816;51.142;-0.974;2024-01-11T02:49:08;101714.84;;;-2.39;100.00
51439;BME280;38816;51.142;-0.974;2024-01-11T02:51:34;101722.25;;;-2.41;100.00
51439;BME280;38816;51.142;-0.974;2024-01-11T02:54:01;101732.47;;;-2.39;100.00
51439;BME280;38816;51.142;-0.974;2024-01-11T02:56:26;101738.38;;;-2.39;100.00
51439;BME280;38816;51.142;-0.974;2024-01-11T02:58:51;101745.22;;;-2.38;100.00
51439;BME280;38816;51.142;-0.974;2024-01-11T03:01:17;101741.47;;;-2.33;100.00
51439;BME280;38816;51.142;-0.974;2024-01-11T03:03:42;101746.72;;;-2.21;100.00
51439;BME280;38816;51.142;-0.974;2024-01-11T03:06:08;101742.69;;;-2.10;100.00
51439;BME280;38816;51.142;-0.974;2024-01-11T03:08:33;101746.50;;;-2.05;100.00
51439;BME280;38816;51.142;-0.974;2024-01-11T03:10:59;101742.06;;;-2.08;100.00
51439;BME280;38816;51.142;-0.974;2024-01-11T03:13:24;101747.25;;;-2.06;100.00
51439;BME280;38816;51.142;-0.974;2024-01-11T03:15:52;101741.47;;;-2.05;100.00
51439;BME280;38816;51.142;-0.974;2024-01-11T03:18:18;101740.59;;;-2.06;100.00
51439;BME280;38816;51.142;-0.974;2024-01-11T03:20:44;101748.00;;;-2.07;100.00
51439;BME280;38816;51.142;-0.974;2024-01-11T03:23:09;101744.16;;;-2.12;100.00
51439;BME280;38816;51.142;-0.974;2024-01-11T03:25:35;101742.28;;;-2.15;100.00
51439;BME280;38816;51.142;-0.974;2024-01-11T03:28:00;101743.75;;;-2.17;100.00
51439;BME280;38816;51.142;-0.974;2024-01-11T03:30:26;101744.50;;;-2.18;100.00
51439;BME280;38816;51.142;-0.974;2024-01-11T03:32:51;101743.31;;;-2.21;100.00
51439;BME280;38816;51.142;-0.974;2024-01-11T03:35:20;101751.50;;;-2.24;100.00
51439;BME280;38816;51.142;-0.974;2024-01-11T03:37:45;101754.63;;;-2.26;100.00
51439;BME280;38816;51.142;-0.974;2024-01-11T03:40:11;101755.50;;;-2.26;100.00
51439;BME280;38816;51.142;-0.974;2024-01-11T03:42:37;101759.41;;;-2.30;100.00
51439;BME280;38816;51.142;-0.974;2024-01-11T03:45:03;101770.06;;;-2.32;100.00
51439;BME280;38816;51.142;-0.974;2024-01-11T03:47:29;101770.50;;;-2.27;100.00
51439;BME280;38816;51.142;-0.974;2024-01-11T03:49:54;101769.72;;;-2.26;100.00
51439;BME280;38816;51.142;-0.974;2024-01-11T03:52:20;101772.66;;;-2.22;100.00
51439;BME280;38816;51.142;-0.974;2024-01-11T03:54:46;101770.44;;;-2.19;100.00
51439;BME280;38816;51.142;-0.974;2024-01-11T03:57:11;101777.25;;;-2.18;100.00
51439;BME280;38816;51.142;-0.974;2024-01-11T03:59:37;101765.38;;;-2.10;100.00
51439;BME280;38816;51.142;-0.974;2024-01-11T04:02:02;101768.19;;;-2.07;100.00
51439;BME280;38816;51.142;-0.974;2024-01-11T04:04:28;101772.59;;;-2.05;100.00
51439;BME280;38816;51.142;-0.974;2024-01-11T04:06:53;101773.75;;;-2.01;100.00
51439;BME280;38816;51.142;-0.974;2024-01-11T04:09:19;101773.53;;;-1.94;100.00
51439;BME280;38816;51.142;-0.974;2024-01-11T04:11:45;101761.53;;;-1.88;100.00
51439;BME280;38816;51.142;-0.974;2024-01-11T04:14:11;101780.88;;;-1.78;100.00
51439;BME280;38816;51.142;-0.974;2024-01-11T04:16:41;101781.41;;;-1.72;100.00
51439;BME280;38816;51.142;-0.974;2024-01-11T04:19:07;101783.47;;;-1.68;100.00
51439;BME280;38816;51.142;-0.974;2024-01-11T04:21:32;101788.91;;;-1.63;100.00
51439;BME280;38816;51.142;-0.974;2024-01-11T04:23:58;101798.66;;;-1.58;100.00
51439;BME280;38816;51.142;-0.974;2024-01-11T04:26:24;101804.28;;;-1.51;100.00
51439;BME280;38816;51.142;-0.974;2024-01-11T04:28:49;101809.25;;;-1.43;100.00
51439;BME280;38816;51.142;-0.974;2024-01-11T04:31:15;101806.50;;;-1.36;100.00
51439;BME280;38816;51.142;-0.974;2024-01-11T04:33:45;101803.19;;;-1.26;100.00
51439;BME280;38816;51.142;-0.974;2024-01-11T04:36:11;101795.75;;;-1.24;100.00
51439;BME280;38816;51.142;-0.974;2024-01-11T04:38:37;101802.78;;;-1.12;100.00
51439;BME280;38816;51.142;-0.974;2024-01-11T04:41:10;101806.69;;;-1.05;100.00
51439;BME280;38816;51.142;-0.974;2024-01-11T04:43:43;101806.22;;;-1.01;100.00
51439;BME280;38816;51.142;-0.974;2024-01-11T04:46:18;101813.31;;;-0.97;100.00
51439;BME280;38816;51.142;-0.974;2024-01-11T04:48:45;101809.44;;;-0.93;100.00
51439;BME280;38816;51.142;-0.974;2024-01-11T04:51:11;101808.78;;;-0.91;100.00
51439;BME280;38816;51.142;-0.974;2024-01-11T04:53:40;101796.03;;;-0.92;100.00
51439;BME280;38816;51.142;-0.974;2024-01-11T04:56:07;101805.53;;;-0.90;100.00
51439;BME280;38816;51.142;-0.974;2024-01-11T04:58:34;101796.31;;;-0.89;100.00
51439;BME280;38816;51.142;-0.974;2024-01-11T05:00:59;101809.53;;;-0.92;100.00
51439;BME280;38816;51.142;-0.974;2024-01-11T05:03:25;101803.25;;;-0.87;100.00
51439;BME280;38816;51.142;-0.974;2024-01-11T05:05:51;101809.34;;;-0.85;100.00
51439;BME280;38816;51.142;-0.974;2024-01-11T05:08:17;101803.41;;;-0.85;100.00
51439;BME280;38816;51.142;-0.974;2024-01-11T05:10:43;101804.00;;;-0.88;100.00
51439;BME280;38816;51.142;-0.974;2024-01-11T05:13:10;101807.31;;;-0.89;100.00
51439;BME280;38816;51.142;-0.974;2024-01-11T05:15:35;101805.53;;;-0.90;100.00
51439;BME280;38816;51.142;-0.974;2024-01-11T05:18:00;101815.06;;;-0.96;100.00
51439;BME280;38816;51.142;-0.974;2024-01-11T05:20:26;101815.06;;;-0.96;100.00
51439;BME280;38816;51.142;-0.974;2024-01-11T05:22:51;101811.78;;;-0.95;100.00
51439;BME280;38816;51.142;-0.974;2024-01-11T05:25:17;101818.88;;;-0.91;100.00
51439;BME280;38816;51.142;-0.974;2024-01-11T05:27:42;101819.75;;;-0.90;100.00
51439;BME280;38816;51.142;-0.974;2024-01-11T05:30:08;101827.22;;;-0.92;100.00
51439;BME280;38816;51.142;-0.974;2024-01-11T05:32:34;101831.38;;;-0.92;100.00
51439;BME280;38816;51.142;-0.974;2024-01-11T05:34:59;101832.38;;;-0.90;100.00
51439;BME280;38816;51.142;-0.974;2024-01-11T05:37:25;101834.03;;;-0.91;100.00
51439;BME280;38816;51.142;-0.974;2024-01-11T05:39:50;101845.94;;;-0.90;100.00
51439;BME280;38816;51.142;-0.974;2024-01-11T05:42:17;101844.41;;;-0.88;100.00
51439;BME280;38816;51.142;-0.974;2024-01-11T05:44:42;101850.81;;;-0.91;100.00
51439;BME280;38816;51.142;-0.974;2024-01-11T05:47:09;101850.41;;;-0.96;100.00
51439;BME280;38816;51.142;-0.974;2024-01-11T05:49:34;101856.16;;;-1.07;100.00
51439;BME280;38816;51.142;-0.974;2024-01-11T05:52:00;101855.66;;;-1.22;100.00
51439;BME280;38816;51.142;-0.974;2024-01-11T05:54:25;101853.38;;;-1.29;100.00
51439;BME280;38816;51.142;-0.974;2024-01-11T05:56:53;101862.00;;;-1.36;100.00
51439;BME280;38816;51.142;-0.974;2024-01-11T05:59:21;101865.16;;;-1.38;100.00
51439;BME280;38816;51.142;-0.974;2024-01-11T06:01:47;101869.78;;;-1.43;100.00
51439;BME280;38816;51.142;-0.974;2024-01-11T06:04:14;101869.56;;;-1.55;100.00
51439;BME280;38816;51.142;-0.974;2024-01-11T06:06:40;101871.38;;;-1.62;100.00
51439;BME280;38816;51.142;-0.974;2024-01-11T06:09:06;101871.44;;;-1.71;100.00
51439;BME280;38816;51.142;-0.974;2024-01-11T06:11:32;101868.63;;;-1.74;100.00
51439;BME280;38816;51.142;-0.974;2024-01-11T06:13:58;101873.72;;;-1.83;100.00
51439;BME280;38816;51.142;-0.974;2024-01-11T06:16:23;101874.72;;;-1.81;100.00
51439;BME280;38816;51.142;-0.974;2024-01-11T06:18:50;101880.53;;;-1.82;100.00
51439;BME280;38816;51.142;-0.974;2024-01-11T06:21:15;101878.34;;;-1.87;100.00
51439;BME280;38816;51.142;-0.974;2024-01-11T06:23:43;101878.34;;;-1.87;100.00
51439;BME280;38816;51.142;-0.974;2024-01-11T06:26:09;101876.69;;;-1.87;100.00
51439;BME280;38816;51.142;-0.974;2024-01-11T06:28:34;101876.28;;;-1.91;100.00
51439;BME280;38816;51.142;-0.974;2024-01-11T06:30:59;101876.88;;;-1.94;100.00
51439;BME280;38816;51.142;-0.974;2024-01-11T06:33:25;101880.00;;;-1.96;100.00
51439;BME280;38816;51.142;-0.974;2024-01-11T06:35:50;101878.94;;;-1.90;100.00
51439;BME280;38816;51.142;-0.974;2024-01-11T06:38:16;101885.28;;;-1.85;100.00
51439;BME280;38816;51.142;-0.974;2024-01-11T06:40:41;101890.31;;;-1.85;100.00
51439;BME280;38816;51.142;-0.974;2024-01-11T06:43:08;101895.69;;;-1.90;100.00
51439;BME280;38816;51.142;-0.974;2024-01-11T06:45:34;101903.25;;;-1.90;100.00
51439;BME280;38816;51.142;-0.974;2024-01-11T06:47:59;101899.84;;;-1.91;100.00
51439;BME280;38816;51.142;-0.974;2024-01-11T06:50:25;101893.91;;;-1.91;100.00
51439;BME280;38816;51.142;-0.974;2024-01-11T06:52:50;101894.34;;;-1.87;100.00
51439;BME280;38816;51.142;-0.974;2024-01-11T06:55:16;101895.84;;;-1.89;100.00
51439;BME280;38816;51.142;-0.974;2024-01-11T06:57:41;101903.97;;;-1.83;100.00
51439;BME280;38816;51.142;-0.974;2024-01-11T07:00:07;101903.22;;;-1.82;100.00
51439;BME280;38816;51.142;-0.974;2024-01-11T07:02:33;101900.88;;;-1.89;100.00
51439;BME280;38816;51.142;-0.974;2024-01-11T07:04:58;101901.78;;;-1.88;100.00
51439;BME280;38816;51.142;-0.974;2024-01-11T07:07:24;101908.13;;;-1.83;100.00
51439;BME280;38816;51.142;-0.974;2024-01-11T07:09:49;101908.28;;;-1.90;100.00
51439;BME280;38816;51.142;-0.974;2024-01-11T07:12:15;101920.88;;;-1.90;100.00
51439;BME280;38816;51.142;-0.974;2024-01-11T07:14:42;101923.41;;;-1.90;100.00
51439;BME280;38816;51.142;-0.974;2024-01-11T07:17:07;101928.19;;;-1.93;100.00
51439;BME280;38816;51.142;-0.974;2024-01-11T07:19:33;101924.50;;;-1.97;100.00
51439;BME280;38816;51.142;-0.974;2024-01-11T07:21:58;101933.81;;;-1.96;100.00
51439;BME280;38816;51.142;-0.974;2024-01-11T07:24:24;101930.28;;;-1.98;100.00
51439;BME280;38816;51.142;-0.974;2024-01-11T07:26:50;101939.59;;;-1.97;100.00
51439;BME280;38816;51.142;-0.974;2024-01-11T07:29:18;101937.50;;;-1.92;100.00
51439;BME280;38816;51.142;-0.974;2024-01-11T07:31:44;101932.47;;;-1.92;100.00
51439;BME280;38816;51.142;-0.974;2024-01-11T07:34:09;101940.78;;;-1.93;100.00
51439;BME280;38816;51.142;-0.974;2024-01-11T07:36:36;101944.19;;;-1.93;100.00
51439;BME280;38816;51.142;-0.974;2024-01-11T07:39:01;101949.94;;;-1.94;100.00
51439;BME280;38816;51.142;-0.974;2024-01-11T07:41:27;101951.88;;;-1.91;100.00
51439;BME280;38816;51.142;-0.974;2024-01-11T07:43:52;101953.81;;;-1.89;100.00
51439;BME280;38816;51.142;-0.974;2024-01-11T07:46:19;101951.13;;;-1.90;100.00
51439;BME280;38816;51.142;-0.974;2024-01-11T07:48:44;101951.88;;;-1.91;100.00
51439;BME280;38816;51.142;-0.974;2024-01-11T07:51:10;101959.75;;;-1.88;100.00
51439;BME280;38816;51.142;-0.974;2024-01-11T07:53:35;101966.41;;;-1.89;100.00
51439;BME280;38816;51.142;-0.974;2024-01-11T07:56:01;101966.00;;;-1.93;100.00
51439;BME280;38816;51.142;-0.974;2024-01-11T07:58:26;101967.75;;;-1.92;100.00
51439;BME280;38816;51.142;-0.974;2024-01-11T08:00:52;101982.88;;;-1.92;100.00
51439;BME280;38816;51.142;-0.974;2024-01-11T08:03:19;101991.00;;;-1.86;100.00
51439;BME280;38816;51.142;-0.974;2024-01-11T08:05:44;101994.84;;;-1.90;100.00
51439;BME280;38816;51.142;-0.974;2024-01-11T08:08:10;101993.53;;;-1.86;100.00
51439;BME280;38816;51.142;-0.974;2024-01-11T08:10:35;101997.66;;;-1.78;100.00
51439;BME280;38816;51.142;-0.974;2024-01-11T08:13:01;102000.75;;;-1.72;100.00
51439;BME280;38816;51.142;-0.974;2024-01-11T08:15:27;102002.25;;;-1.74;100.00
51439;BME280;38816;51.142;-0.974;2024-01-11T08:17:53;102000.91;;;-1.70;100.00
51439;BME280;38816;51.142;-0.974;2024-01-11T08:20:18;102009.34;;;-1.70;100.00
51439;BME280;38816;51.142;-0.974;2024-01-11T08:22:45;102002.22;;;-1.65;100.00
51439;BME280;38816;51.142;-0.974;2024-01-11T08:25:14;102008.47;;;-1.70;100.00
51439;BME280;38816;51.142;-0.974;2024-01-11T08:27:40;102014.22;;;-1.71;100.00
51439;BME280;38816;51.142;-0.974;2024-01-11T08:30:06;102014.22;;;-1.71;100.00
51439;BME280;38816;51.142;-0.974;2024-01-11T08:32:33;102013.63;;;-1.69;100.00
51439;BME280;38816;51.142;-0.974;2024-01-11T08:35:11;102019.69;;;-1.67;100.00
51439;BME280;38816;51.142;-0.974;2024-01-11T08:37:37;101989.22;;;-1.79;100.00
51439;BME280;38816;51.142;-0.974;2024-01-11T08:40:03;102017.91;;;-1.59;100.00
51439;BME280;38816;51.142;-0.974;2024-01-11T08:42:30;102025.47;;;-1.59;100.00
51439;BME280;38816;51.142;-0.974;2024-01-11T08:44:56;102024.72;;;-1.58;100.00
51439;BME280;38816;51.142;-0.974;2024-01-11T08:47:21;102025.47;;;-1.59;100.00
51439;BME280;38816;51.142;-0.974;2024-01-11T08:49:47;102029.75;;;-1.58;100.00
51439;BME280;38816;51.142;-0.974;2024-01-11T08:52:12;102036.59;;;-1.57;100.00
51439;BME280;38816;51.142;-0.974;2024-01-11T08:54:38;102039.97;;;-1.48;100.00
51439;BME280;38816;51.142;-0.974;2024-01-11T08:57:04;102045.47;;;-1.43;100.00
51439;BME280;38816;51.142;-0.974;2024-01-11T08:59:29;102040.09;;;-1.38;100.00
51439;BME280;38816;51.142;-0.974;2024-01-11T09:01:55;102047.31;;;-1.32;100.00
51439;BME280;38816;51.142;-0.974;2024-01-11T09:04:20;102044.63;;;-1.25;100.00
51439;BME280;38816;51.142;-0.974;2024-01-11T09:06:46;102044.00;;;-1.22;100.00
51439;BME280;38816;51.142;-0.974;2024-01-11T09:09:11;102041.78;;;-1.19;100.00
51439;BME280;38816;51.142;-0.974;2024-01-11T09:11:39;102036.44;;;-1.22;100.00
51439;BME280;38816;51.142;-0.974;2024-01-11T09:14:06;102041.47;;;-1.22;100.00
51439;BME280;38816;51.142;-0.974;2024-01-11T09:16:32;102038.25;;;-1.21;100.00
51439;BME280;38816;51.142;-0.974;2024-01-11T09:18:58;102052.44;;;-1.13;100.00
51439;BME280;38816;51.142;-0.974;2024-01-11T09:21:26;102046.78;;;-1.11;100.00
51439;BME280;38816;51.142;-0.974;2024-01-11T09:23:51;102050.03;;;-1.03;100.00
51439;BME280;38816;51.142;-0.974;2024-01-11T09:26:17;102054.75;;;-0.97;100.00
51439;BME280;38816;51.142;-0.974;2024-01-11T09:28:42;102062.72;;;-0.93;100.00
51439;BME280;38816;51.142;-0.974;2024-01-11T09:31:08;102060.91;;;-0.85;100.00
51439;BME280;38816;51.142;-0.974;2024-01-11T09:33:33;102064.75;;;-0.80;100.00
51439;BME280;38816;51.142;-0.974;2024-01-11T09:35:59;102073.28;;;-0.69;100.00
51439;BME280;38816;51.142;-0.974;2024-01-11T09:38:24;102074.09;;;-0.60;100.00
51439;BME280;38816;51.142;-0.974;2024-01-11T09:41:04;102073.22;;;-0.61;100.00
51439;BME280;38816;51.142;-0.974;2024-01-11T09:43:34;102090.03;;;-0.42;100.00
51439;BME280;38816;51.142;-0.974;2024-01-11T09:46:04;102094.13;;;-0.34;100.00
51439;BME280;38816;51.142;-0.974;2024-01-11T09:48:32;102086.84;;;-0.31;100.00
51439;BME280;38816;51.142;-0.974;2024-01-11T09:51:01;102076.84;;;-0.30;100.00
51439;BME280;38816;51.142;-0.974;2024-01-11T09:53:33;102081.50;;;-0.34;100.00
51439;BME280;38816;51.142;-0.974;2024-01-11T09:56:09;102092.31;;;-0.27;100.00
51439;BME280;38816;51.142;-0.974;2024-01-11T09:58:36;102085.72;;;-0.24;100.00
51439;BME280;38816;51.142;-0.974;2024-01-11T10:01:02;102099.66;;;-0.19;100.00
51439;BME280;38816;51.142;-0.974;2024-01-11T10:03:28;102099.94;;;-0.16;100.00
51439;BME280;38816;51.142;-0.974;2024-01-11T10:05:58;102107.31;;;-0.09;100.00
51439;BME280;38816;51.142;-0.974;2024-01-11T10:08:25;102099.00;;;-0.08;100.00
51439;BME280;38816;51.142;-0.974;2024-01-11T10:10:50;102095.72;;;-0.07;100.00
51439;BME280;38816;51.142;-0.974;2024-01-11T10:13:16;102103.34;;;0.03;100.00
51439;BME280;38816;51.142;-0.974;2024-01-11T10:15:42;102109.22;;;0.12;100.00
51439;BME280;38816;51.142;-0.974;2024-01-11T10:18:08;102116.03;;;0.13;100.00
51439;BME280;38816;51.142;-0.974;2024-01-11T10:20:34;102125.91;;;0.10;100.00
51439;BME280;38816;51.142;-0.974;2024-01-11T10:22:59;102126.72;;;0.19;100.00
51439;BME280;38816;51.142;-0.974;2024-01-11T10:25:26;102122.19;;;0.25;100.00
51439;BME280;38816;51.142;-0.974;2024-01-11T10:27:52;102126.00;;;0.31;100.00
51439;BME280;38816;51.142;-0.974;2024-01-11T10:30:17;102124.88;;;0.27;100.00
51439;BME280;38816;51.142;-0.974;2024-01-11T10:32:45;102131.69;;;0.28;100.00
51439;BME280;38816;51.142;-0.974;2024-01-11T10:35:11;102125.50;;;0.35;100.00
51439;BME280;38816;51.142;-0.974;2024-01-11T10:37:37;102127.97;;;0.43;100.00
51439;BME280;38816;51.142;-0.974;2024-01-11T10:40:08;102125.84;;;0.48;100.00
51439;BME280;38816;51.142;-0.974;2024-01-11T10:42:45;102125.22;;;0.50;100.00
51439;BME280;38816;51.142;-0.974;2024-01-11T10:45:19;102126.63;;;0.57;100.00
51439;BME280;38816;51.142;-0.974;2024-01-11T10:47:55;102117.56;;;0.69;100.00
51439;BME280;38816;51.142;-0.974;2024-01-11T10:50:25;102119.34;;;0.70;100.00
51439;BME280;38816;51.142;-0.974;2024-01-11T10:55:43;102123.69;;;0.82;100.00
51439;BME280;38816;51.142;-0.974;2024-01-11T10:58:10;102127.00;;;0.91;100.00
51439;BME280;38816;51.142;-0.974;2024-01-11T11:00:37;102114.59;;;0.94;100.00
51439;BME280;38816;51.142;-0.974;2024-01-11T11:03:05;102115.38;;;1.03;100.00
51439;BME280;38816;51.142;-0.974;2024-01-11T11:05:34;102116.13;;;1.12;100.00
51439;BME280;38816;51.142;-0.974;2024-01-11T11:08:03;102118.94;;;1.25;100.00
51439;BME280;38816;51.142;-0.974;2024-01-11T11:10:32;102118.22;;;1.37;100.00
51439;BME280;38816;51.142;-0.974;2024-01-11T11:13:03;102116.94;;;1.52;100.00
51439;BME280;38816;51.142;-0.974;2024-01-11T11:15:36;102131.91;;;1.59;100.00
51439;BME280;38816;51.142;-0.974;2024-01-11T11:18:04;102124.56;;;1.62;100.00
51439;BME280;38816;51.142;-0.974;2024-01-11T11:20:32;102130.00;;;1.67;100.00
51439;BME280;38816;51.142;-0.974;2024-01-11T11:23:08;102122.53;;;1.68;100.00
51439;BME280;38816;51.142;-0.974;2024-01-11T11:25:35;102124.63;;;1.84;100.00
51439;BME280;38816;51.142;-0.974;2024-01-11T11:28:01;102117.91;;;2.05;100.00
51439;BME280;38816;51.142;-0.974;2024-01-11T11:30:30;102123.00;;;2.37;100.00
51439;BME280;38816;51.142;-0.974;2024-01-11T11:32:55;102118.94;;;2.71;100.00
51439;BME280;38816;51.142;-0.974;2024-01-11T11:35:24;102118.63;;;3.00;100.00
51439;BME280;38816;51.142;-0.974;2024-01-11T11:37:55;102114.56;;;3.02;100.00
51439;BME280;38816;51.142;-0.974;2024-01-11T11:40:21;102116.41;;;2.93;100.00
51439;BME280;38816;51.142;-0.974;2024-01-11T11:42:47;102131.16;;;2.87;100.00
51439;BME280;38816;51.142;-0.974;2024-01-11T11:45:24;102123.31;;;2.84;100.00
51439;BME280;38816;51.142;-0.974;2024-01-11T11:47:49;102125.03;;;2.95;100.00
51439;BME280;38816;51.142;-0.974;2024-01-11T11:50:15;102129.31;;;2.96;100.00
51439;BME280;38816;51.142;-0.974;2024-01-11T11:52:40;102129.81;;;3.02;100.00
51439;BME280;38816;51.142;-0.974;2024-01-11T11:55:09;102130.91;;;3.06;100.00
51439;BME280;38816;51.142;-0.974;2024-01-11T11:57:35;102141.25;;;3.19;100.00
51439;BME280;38816;51.142;-0.974;2024-01-11T12:00:02;102136.88;;;3.28;100.00
51439;BME280;38816;51.142;-0.974;2024-01-11T12:02:31;102145.75;;;3.34;100.00
51439;BME280;38816;51.142;-0.974;2024-01-11T12:04:57;102145.13;;;3.48;100.00
51439;BME280;38816;51.142;-0.974;2024-01-11T12:07:22;102147.16;;;3.52;100.00
51439;BME280;38816;51.142;-0.974;2024-01-11T12:09:49;102144.50;;;3.62;100.00
51439;BME280;38816;51.142;-0.974;2024-01-11T12:12:16;102148.09;;;3.76;100.00
51439;BME280;38816;51.142;-0.974;2024-01-11T12:14:43;102145.63;;;3.77;100.00
51439;BME280;38816;51.142;-0.974;2024-01-11T12:17:09;102142.34;;;3.78;100.00
51439;BME280;38816;51.142;-0.974;2024-01-11T12:19:34;102141.53;;;3.68;100.00
51439;BME280;38816;51.142;-0.974;2024-01-11T12:22:00;102148.63;;;3.72;100.00
51439;BME280;38816;51.142;-0.974;2024-01-11T12:24:26;102147.09;;;3.74;100.00
51439;BME280;38816;51.142;-0.974;2024-01-11T12:26:52;102153.28;;;3.77;100.00
51439;BME280;38816;51.142;-0.974;2024-01-11T12:29:19;102142.34;;;3.78;100.00
51439;BME280;38816;51.142;-0.974;2024-01-11T12:31:45;102142.78;;;3.85;100.00